sensor_id;sensor_type;location;lat;lon;timestamp;pressure;altitude;pressure_sealevel;temperature;humidity
8697;BME280;4385;48.848;8.924;2023-08-01T00:01:24;96431.56;;;22.15;100.00
8697;BME280;4385;48.848;8.924;2023-08-01T00:03:49;96426.41;;;22.15;100.00
8697;BME280;4385;48.848;8.924;2023-08-01T00:06:14;96429.00;;;22.15;100.00
8697;BME280;4385;48.848;8.924;2023-08-01T00:08:39;96421.28;;;22.15;100.00
8697;BME280;4385;48.848;8.924;2023-08-01T00:11:05;96419.63;;;22.14;100.00
8697;BME280;4385;48.848;8.924;2023-08-01T00:13:30;96411.91;;;22.14;100.00
8697;BME280;4385;48.848;8.924;2023-08-01T00:15:55;96409.34;;;22.14;100.00
8697;BME280;4385;48.848;8.924;2023-08-01T00:18:21;96411.84;;;22.15;100.00
8697;BME280;4385;48.848;8.924;2023-08-01T00:20:46;96410.19;;;22.14;100.00
8697;BME280;4385;48.848;8.924;2023-08-01T00:23:11;96408.47;;;22.15;100.00
8697;BME280;4385;48.848;8.924;2023-08-01T00:25:36;96388.84;;;22.14;100.00
8697;BME280;4385;48.848;8.924;2023-08-01T00:28:02;96371.72;;;22.14;100.00
8697;BME280;4385;48.848;8.924;2023-08-01T00:30:27;96363.19;;;22.14;100.00
8697;BME280;4385;48.848;8.924;2023-08-01T00:32:53;96359.72;;;22.15;100.00
8697;BME280;4385;48.848;8.924;2023-08-01T00:35:18;96353.66;;;22.16;100.00
8697;BME280;4385;48.848;8.924;2023-08-01T00:37:43;96356.31;;;22.14;100.00
8697;BME280;4385;48.848;8.924;2023-08-01T00:40:08;96354.59;;;22.15;100.00
8697;BME280;4385;48.848;8.924;2023-08-01T00:42:36;96352.91;;;22.14;100.00
8697;BME280;4385;48.848;8.924;2023-08-01T00:45:02;96337.53;;;22.14;100.00
8697;BME280;4385;48.848;8.924;2023-08-01T00:47:28;96333.22;;;22.14;100.00
8697;BME280;4385;48.848;8.924;2023-08-01T00:49:53;96333.22;;;22.14;100.00
8697;BME280;4385;48.848;8.924;2023-08-01T00:52:19;96335.78;;;22.14;100.00
8697;BME280;4385;48.848;8.924;2023-08-01T00:54:44;96332.41;;;22.14;100.00
8697;BME280;4385;48.848;8.924;2023-08-01T00:57:09;96317.00;;;22.14;100.00
8697;BME280;4385;48.848;8.924;2023-08-01T00:59:35;96322.13;;;22.14;100.00
8697;BME280;4385;48.848;8.924;2023-08-01T01:02:00;96311.88;;;22.14;100.00
8697;BME280;4385;48.848;8.924;2023-08-01T01:04:26;96317.94;;;22.13;100.00
8697;BME280;4385;48.848;8.924;2023-08-01T01:06:57;96315.34;;;22.13;100.00
8697;BME280;4385;48.848;8.924;2023-08-01T01:09:28;96326.53;;;22.12;100.00
8697;BME280;4385;48.848;8.924;2023-08-01T01:11:53;96329.09;;;22.12;100.00
8697;BME280;4385;48.848;8.924;2023-08-01T01:14:19;96323.06;;;22.13;100.00
8697;BME280;4385;48.848;8.924;2023-08-01T01:16:44;96326.53;;;22.12;100.00
8697;BME280;4385;48.848;8.924;2023-08-01T01:19:09;96326.47;;;22.13;100.00
8697;BME280;4385;48.848;8.924;2023-08-01T01:21:36;96328.19;;;22.13;100.00
8697;BME280;4385;48.848;8.924;2023-08-01T01:24:04;96313.72;;;22.12;100.00
8697;BME280;4385;48.848;8.924;2023-08-01T01:26:32;96329.91;;;22.12;100.00
8697;BME280;4385;48.848;8.924;2023-08-01T01:28:58;96323.97;;;22.12;100.00
8697;BME280;4385;48.848;8.924;2023-08-01T01:31:24;96310.22;;;22.13;100.00
8697;BME280;4385;48.848;8.924;2023-08-01T01:33:50;96311.06;;;22.13;100.00
8697;BME280;4385;48.848;8.924;2023-08-01T01:36:15;96306.75;;;22.14;100.00
8697;BME280;4385;48.848;8.924;2023-08-01T01:38:40;96294.84;;;22.13;100.00
8697;BME280;4385;48.848;8.924;2023-08-01T01:41:06;96289.72;;;22.13;100.00
8697;BME280;4385;48.848;8.924;2023-08-01T01:43:31;96275.25;;;22.12;100.00
8697;BME280;4385;48.848;8.924;2023-08-01T01:45:56;96264.97;;;22.12;100.00
8697;BME280;4385;48.848;8.924;2023-08-01T01:48:21;96257.28;;;22.12;100.00
8697;BME280;4385;48.848;8.924;2023-08-01T01:50:47;96252.16;;;22.12;100.00
8697;BME280;4385;48.848;8.924;2023-08-01T01:53:12;96256.44;;;22.11;100.00
8697;BME280;4385;48.848;8.924;2023-08-01T01:55:37;96253.78;;;22.13;100.00
8697;BME280;4385;48.848;8.924;2023-08-01T01:58:02;96251.31;;;22.11;100.00
8697;BME280;4385;48.848;8.924;2023-08-01T02:00:28;96256.44;;;22.11;100.00
8697;BME280;4385;48.848;8.924;2023-08-01T02:02:53;96244.47;;;22.12;100.00
8697;BME280;4385;48.848;8.924;2023-08-01T02:05:18;96254.72;;;22.12;100.00
8697;BME280;4385;48.848;8.924;2023-08-01T02:07:43;96245.25;;;22.12;100.00
8697;BME280;4385;48.848;8.924;2023-08-01T02:10:09;96246.19;;;22.11;100.00
8697;BME280;4385;48.848;8.924;2023-08-01T02:12:34;96238.56;;;22.10;100.00
8697;BME280;4385;48.848;8.924;2023-08-01T02:15:01;96235.94;;;22.11;100.00
8697;BME280;4385;48.848;8.924;2023-08-01T02:17:26;96248.75;;;22.11;100.00
8697;BME280;4385;48.848;8.924;2023-08-01T02:19:51;96248.84;;;22.10;100.00
8697;BME280;4385;48.848;8.924;2023-08-01T02:22:17;96252.25;;;22.10;100.00
8697;BME280;4385;48.848;8.924;2023-08-01T02:24:42;96260.81;;;22.09;100.00
8697;BME280;4385;48.848;8.924;2023-08-01T02:27:07;96248.00;;;22.09;100.00
8697;BME280;4385;48.848;8.924;2023-08-01T02:29:33;96240.22;;;22.11;100.00
8697;BME280;4385;48.848;8.924;2023-08-01T02:31:59;96232.53;;;22.11;100.00
8697;BME280;4385;48.848;8.924;2023-08-01T02:34:24;96224.03;;;22.10;100.00
8697;BME280;4385;48.848;8.924;2023-08-01T02:36:49;96230.88;;;22.10;100.00
8697;BME280;4385;48.848;8.924;2023-08-01T02:39:14;96225.75;;;22.10;100.00
8697;BME280;4385;48.848;8.924;2023-08-01T02:41:40;96233.44;;;22.10;100.00
8697;BME280;4385;48.848;8.924;2023-08-01T02:44:05;96218.06;;;22.10;100.00
8697;BME280;4385;48.848;8.924;2023-08-01T02:46:30;96218.06;;;22.10;100.00
8697;BME280;4385;48.848;8.924;2023-08-01T02:48:56;96212.94;;;22.10;100.00
8697;BME280;4385;48.848;8.924;2023-08-01T02:51:21;96222.34;;;22.09;100.00
8697;BME280;4385;48.848;8.924;2023-08-01T02:53:47;96223.19;;;22.10;100.00
8697;BME280;4385;48.848;8.924;2023-08-01T02:56:12;96207.88;;;22.08;100.00
8697;BME280;4385;48.848;8.924;2023-08-01T02:58:37;96211.28;;;22.09;100.00
8697;BME280;4385;48.848;8.924;2023-08-01T03:01:07;96199.34;;;22.08;100.00
8697;BME280;4385;48.848;8.924;2023-08-01T03:03:34;96212.19;;;22.08;100.00
8697;BME280;4385;48.848;8.924;2023-08-01T03:06:01;96214.75;;;22.08;100.00
8697;BME280;4385;48.848;8.924;2023-08-01T03:08:26;96200.28;;;22.07;100.00
8697;BME280;4385;48.848;8.924;2023-08-01T03:10:51;96211.28;;;22.09;100.00
8697;BME280;4385;48.848;8.924;2023-08-01T03:13:17;96194.22;;;22.08;100.00
8697;BME280;4385;48.848;8.924;2023-08-01T03:15:42;96203.69;;;22.07;100.00
8697;BME280;4385;48.848;8.924;2023-08-01T03:18:07;96192.59;;;22.07;100.00
8697;BME280;4385;48.848;8.924;2023-08-01T03:20:33;96205.41;;;22.07;100.00
8697;BME280;4385;48.848;8.924;2023-08-01T03:22:58;96203.69;;;22.07;100.00
8697;BME280;4385;48.848;8.924;2023-08-01T03:25:24;96202.84;;;22.07;100.00
8697;BME280;4385;48.848;8.924;2023-08-01T03:27:49;96201.13;;;22.07;100.00
8697;BME280;4385;48.848;8.924;2023-08-01T03:30:14;96209.44;;;22.11;100.00
8697;BME280;4385;48.848;8.924;2023-08-01T03:32:40;96202.66;;;22.10;100.00
8697;BME280;4385;48.848;8.924;2023-08-01T03:35:05;96204.31;;;22.11;100.00
8697;BME280;4385;48.848;8.924;2023-08-01T03:37:31;96197.53;;;22.10;100.00
8697;BME280;4385;48.848;8.924;2023-08-01T03:39:56;96202.66;;;22.10;100.00
8697;BME280;4385;48.848;8.924;2023-08-01T03:42:21;96193.25;;;22.10;100.00
8697;BME280;4385;48.848;8.924;2023-08-01T03:44:47;96193.25;;;22.10;100.00
8697;BME280;4385;48.848;8.924;2023-08-01T03:47:12;96193.25;;;22.10;100.00
8697;BME280;4385;48.848;8.924;2023-08-01T03:49:37;96185.53;;;22.10;100.00
8697;BME280;4385;48.848;8.924;2023-08-01T03:52:04;96179.50;;;22.11;100.00
8697;BME280;4385;48.848;8.924;2023-08-01T03:54:30;96165.84;;;22.11;100.00
8697;BME280;4385;48.848;8.924;2023-08-01T03:56:55;96171.06;;;22.09;100.00
8697;BME280;4385;48.848;8.924;2023-08-01T03:59:20;96148.16;;;22.06;100.00
8697;BME280;4385;48.848;8.924;2023-08-01T04:01:45;96110.50;;;22.07;100.00
8697;BME280;4385;48.848;8.924;2023-08-01T04:04:11;96094.94;;;22.10;100.00
8697;BME280;4385;48.848;8.924;2023-08-01T04:06:36;96055.53;;;22.11;100.00
8697;BME280;4385;48.848;8.924;2023-08-01T04:09:02;96059.03;;;22.10;100.00
8697;BME280;4385;48.848;8.924;2023-08-01T04:11:27;96059.88;;;22.10;100.00
8697;BME280;4385;48.848;8.924;2023-08-01T04:13:55;96074.41;;;22.10;100.00
8697;BME280;4385;48.848;8.924;2023-08-01T04:16:21;96074.41;;;22.10;100.00
8697;BME280;4385;48.848;8.924;2023-08-01T04:18:47;96075.25;;;22.10;100.00
8697;BME280;4385;48.848;8.924;2023-08-01T04:21:14;96060.75;;;22.09;100.00
8697;BME280;4385;48.848;8.924;2023-08-01T04:23:40;96048.78;;;22.10;100.00
8697;BME280;4385;48.848;8.924;2023-08-01T04:26:05;96038.50;;;22.10;100.00
8697;BME280;4385;48.848;8.924;2023-08-01T04:28:32;96029.19;;;22.09;100.00
8697;BME280;4385;48.848;8.924;2023-08-01T04:30:57;96023.13;;;22.10;100.00
8697;BME280;4385;48.848;8.924;2023-08-01T04:33:22;96003.53;;;22.09;100.00
8697;BME280;4385;48.848;8.924;2023-08-01T04:35:47;96001.84;;;22.08;100.00
8697;BME280;4385;48.848;8.924;2023-08-01T04:38:14;96022.38;;;22.08;100.00
8697;BME280;4385;48.848;8.924;2023-08-01T04:40:39;96019.00;;;22.07;100.00
8697;BME280;4385;48.848;8.924;2023-08-01T04:43:05;96032.72;;;22.06;100.00
8697;BME280;4385;48.848;8.924;2023-08-01T04:45:31;96054.09;;;22.07;100.00
8697;BME280;4385;48.848;8.924;2023-08-01T04:47:56;96064.34;;;22.07;100.00
8697;BME280;4385;48.848;8.924;2023-08-01T04:50:21;96100.25;;;22.07;100.00
8697;BME280;4385;48.848;8.924;2023-08-01T04:52:46;96119.13;;;22.05;100.00
8697;BME280;4385;48.848;8.924;2023-08-01T04:55:12;96131.94;;;22.05;100.00
8697;BME280;4385;48.848;8.924;2023-08-01T04:57:37;96155.03;;;22.05;100.00
8697;BME280;4385;48.848;8.924;2023-08-01T05:00:03;96144.03;;;22.03;100.00
8697;BME280;4385;48.848;8.924;2023-08-01T05:02:29;96136.34;;;22.03;100.00
8697;BME280;4385;48.848;8.924;2023-08-01T05:04:54;96122.59;;;22.04;100.00
8697;BME280;4385;48.848;8.924;2023-08-01T05:07:20;96131.22;;;22.03;100.00
8697;BME280;4385;48.848;8.924;2023-08-01T05:09:45;96120.94;;;22.03;100.00
8697;BME280;4385;48.848;8.924;2023-08-01T05:12:11;96114.19;;;22.02;100.00
8697;BME280;4385;48.848;8.924;2023-08-01T05:14:36;96097.88;;;22.03;100.00
8697;BME280;4385;48.848;8.924;2023-08-01T05:17:01;96088.53;;;22.02;100.00
8697;BME280;4385;48.848;8.924;2023-08-01T05:19:26;96083.41;;;22.02;100.00
8697;BME280;4385;48.848;8.924;2023-08-01T05:21:52;96089.34;;;22.03;100.00
8697;BME280;4385;48.848;8.924;2023-08-01T05:24:17;96083.41;;;22.02;100.00
8697;BME280;4385;48.848;8.924;2023-08-01T05:26:42;96083.41;;;22.02;100.00
8697;BME280;4385;48.848;8.924;2023-08-01T05:29:08;96089.34;;;22.03;100.00
8697;BME280;4385;48.848;8.924;2023-08-01T05:31:33;96080.84;;;22.02;100.00
8697;BME280;4385;48.848;8.924;2023-08-01T05:33:58;96081.72;;;22.01;100.00
8697;BME280;4385;48.848;8.924;2023-08-01T05:36:23;96081.63;;;22.03;100.00
8697;BME280;4385;48.848;8.924;2023-08-01T05:38:49;96088.53;;;22.02;100.00
8697;BME280;4385;48.848;8.924;2023-08-01T05:41:14;96090.16;;;22.03;100.00
8697;BME280;4385;48.848;8.924;2023-08-01T05:43:39;96093.66;;;22.02;100.00
8697;BME280;4385;48.848;8.924;2023-08-01T05:46:04;96093.66;;;22.02;100.00
8697;BME280;4385;48.848;8.924;2023-08-01T05:48:30;96093.66;;;22.02;100.00
8697;BME280;4385;48.848;8.924;2023-08-01T05:50:55;96099.59;;;22.03;100.00
8697;BME280;4385;48.848;8.924;2023-08-01T05:53:21;96098.78;;;22.02;100.00
8697;BME280;4385;48.848;8.924;2023-08-01T05:55:46;96102.25;;;22.01;100.00
8697;BME280;4385;48.848;8.924;2023-08-01T05:58:12;96103.91;;;22.02;100.00
8697;BME280;4385;48.848;8.924;2023-08-01T06:00:37;96115.91;;;22.02;100.00
8697;BME280;4385;48.848;8.924;2023-08-01T06:03:03;96113.34;;;22.02;100.00
8697;BME280;4385;48.848;8.924;2023-08-01T06:05:28;96113.34;;;22.02;100.00
8697;BME280;4385;48.848;8.924;2023-08-01T06:07:53;96106.56;;;22.01;100.00
8697;BME280;4385;48.848;8.924;2023-08-01T06:10:19;96105.75;;;22.00;100.00
8697;BME280;4385;48.848;8.924;2023-08-01T06:12:44;96113.44;;;22.00;100.00
8697;BME280;4385;48.848;8.924;2023-08-01T06:15:10;96128.81;;;22.00;100.00
8697;BME280;4385;48.848;8.924;2023-08-01T06:17:35;96135.69;;;22.00;100.00
8697;BME280;4385;48.848;8.924;2023-08-01T06:20:00;96133.94;;;22.00;100.00
8697;BME280;4385;48.848;8.924;2023-08-01T06:22:29;96138.16;;;22.01;100.00
8697;BME280;4385;48.848;8.924;2023-08-01T06:24:54;96156.09;;;22.01;100.00
8697;BME280;4385;48.848;8.924;2023-08-01T06:27:20;96163.81;;;22.01;100.00
8697;BME280;4385;48.848;8.924;2023-08-01T06:29:45;96159.59;;;22.00;100.00
8697;BME280;4385;48.848;8.924;2023-08-01T06:32:11;96152.75;;;22.01;100.00
8697;BME280;4385;48.848;8.924;2023-08-01T06:34:36;96153.53;;;22.01;100.00
8697;BME280;4385;48.848;8.924;2023-08-01T06:37:01;96149.25;;;22.02;100.00
8697;BME280;4385;48.848;8.924;2023-08-01T06:39:27;96143.28;;;22.01;100.00
8697;BME280;4385;48.848;8.924;2023-08-01T06:41:52;96157.03;;;22.00;100.00
8697;BME280;4385;48.848;8.924;2023-08-01T06:44:17;96135.69;;;22.00;100.00
8697;BME280;4385;48.848;8.924;2023-08-01T06:46:43;96131.38;;;22.00;100.00
8697;BME280;4385;48.848;8.924;2023-08-01T06:49:08;96120.28;;;22.00;100.00
8697;BME280;4385;48.848;8.924;2023-08-01T06:51:33;96114.34;;;21.99;100.00
8697;BME280;4385;48.848;8.924;2023-08-01T06:53:59;96110.03;;;22.00;100.00
8697;BME280;4385;48.848;8.924;2023-08-01T06:56:24;96114.44;;;21.98;100.00
8697;BME280;4385;48.848;8.924;2023-08-01T06:58:49;96113.53;;;21.99;100.00
8697;BME280;4385;48.848;8.924;2023-08-01T07:01:15;96121.22;;;21.99;100.00
8697;BME280;4385;48.848;8.924;2023-08-01T07:03:40;96116.19;;;21.97;100.00
8697;BME280;4385;48.848;8.924;2023-08-01T07:06:06;96109.41;;;21.96;100.00
8697;BME280;4385;48.848;8.924;2023-08-01T07:08:31;96117.81;;;21.98;100.00
8697;BME280;4385;48.848;8.924;2023-08-01T07:10:58;96116.19;;;21.97;100.00
8697;BME280;4385;48.848;8.924;2023-08-01T07:13:24;96131.56;;;21.97;100.00
8697;BME280;4385;48.848;8.924;2023-08-01T07:15:50;96149.44;;;21.99;100.00
8697;BME280;4385;48.848;8.924;2023-08-01T07:18:15;96155.38;;;21.99;100.00
8697;BME280;4385;48.848;8.924;2023-08-01T07:20:41;96140.00;;;21.99;100.00
8697;BME280;4385;48.848;8.924;2023-08-01T07:23:06;96128.16;;;21.97;100.00
8697;BME280;4385;48.848;8.924;2023-08-01T07:25:31;96139.25;;;21.97;100.00
8697;BME280;4385;48.848;8.924;2023-08-01T07:27:57;96129.09;;;21.96;100.00
8697;BME280;4385;48.848;8.924;2023-08-01T07:30:22;96125.59;;;21.97;100.00
8697;BME280;4385;48.848;8.924;2023-08-01T07:32:48;96119.66;;;21.96;100.00
8697;BME280;4385;48.848;8.924;2023-08-01T07:35:13;96127.34;;;21.96;100.00
8697;BME280;4385;48.848;8.924;2023-08-01T07:37:39;96129.94;;;21.96;100.00
8697;BME280;4385;48.848;8.924;2023-08-01T07:40:07;96129.94;;;21.96;100.00
8697;BME280;4385;48.848;8.924;2023-08-01T07:42:33;96124.78;;;21.96;100.00
8697;BME280;4385;48.848;8.924;2023-08-01T07:44:58;96140.19;;;21.96;100.00
8697;BME280;4385;48.848;8.924;2023-08-01T07:47:23;96134.22;;;21.96;100.00
8697;BME280;4385;48.848;8.924;2023-08-01T07:49:49;96133.38;;;21.95;100.00
8697;BME280;4385;48.848;8.924;2023-08-01T07:52:15;96129.09;;;21.96;100.00
8697;BME280;4385;48.848;8.924;2023-08-01T07:54:40;96125.69;;;21.95;100.00
8697;BME280;4385;48.848;8.924;2023-08-01T07:57:05;96130.00;;;21.95;100.00
8697;BME280;4385;48.848;8.924;2023-08-01T07:59:31;96132.59;;;21.95;100.00
8697;BME280;4385;48.848;8.924;2023-08-01T08:01:56;96134.31;;;21.94;100.00
8697;BME280;4385;48.848;8.924;2023-08-01T08:04:21;96130.09;;;21.93;100.00
8697;BME280;4385;48.848;8.924;2023-08-01T08:06:46;96142.94;;;21.93;100.00
8697;BME280;4385;48.848;8.924;2023-08-01T08:09:12;96130.09;;;21.93;100.00
8697;BME280;4385;48.848;8.924;2023-08-01T08:11:37;96127.53;;;21.93;100.00
8697;BME280;4385;48.848;8.924;2023-08-01T08:14:02;96122.41;;;21.93;100.00
8697;BME280;4385;48.848;8.924;2023-08-01T08:16:28;96120.75;;;21.92;100.00
8697;BME280;4385;48.848;8.924;2023-08-01T08:18:53;96129.25;;;21.92;100.00
8697;BME280;4385;48.848;8.924;2023-08-01T08:21:19;96119.84;;;21.93;100.00
8697;BME280;4385;48.848;8.924;2023-08-01T08:23:44;96113.03;;;21.92;100.00
8697;BME280;4385;48.848;8.924;2023-08-01T08:26:09;96113.88;;;21.92;100.00
8697;BME280;4385;48.848;8.924;2023-08-01T08:28:35;96120.75;;;21.92;100.00
8697;BME280;4385;48.848;8.924;2023-08-01T08:31:01;96128.44;;;21.92;100.00
8697;BME280;4385;48.848;8.924;2023-08-01T08:33:30;96129.25;;;21.92;100.00
8697;BME280;4385;48.848;8.924;2023-08-01T08:35:55;96127.63;;;21.91;100.00
8697;BME280;4385;48.848;8.924;2023-08-01T08:38:20;96123.31;;;21.92;100.00
8697;BME280;4385;48.848;8.924;2023-08-01T08:41:02;96122.50;;;21.91;100.00
8697;BME280;4385;48.848;8.924;2023-08-01T08:43:31;96118.25;;;21.90;100.00
8697;BME280;4385;48.848;8.924;2023-08-01T08:46:00;96121.66;;;21.91;100.00
8697;BME280;4385;48.848;8.924;2023-08-01T08:48:25;96120.81;;;21.90;100.00
8697;BME280;4385;48.848;8.924;2023-08-01T08:50:52;96123.41;;;21.90;100.00
8697;BME280;4385;48.848;8.924;2023-08-01T08:53:17;96132.94;;;21.88;100.00
8697;BME280;4385;48.848;8.924;2023-08-01T08:55:43;96135.59;;;21.87;100.00
8697;BME280;4385;48.848;8.924;2023-08-01T08:58:08;96139.78;;;21.88;100.00
8697;BME280;4385;48.848;8.924;2023-08-01T09:00:36;96133.03;;;21.87;100.00
8697;BME280;4385;48.848;8.924;2023-08-01T09:03:03;96143.09;;;21.90;100.00
8697;BME280;4385;48.848;8.924;2023-08-01T09:05:33;96148.94;;;21.92;100.00
8697;BME280;4385;48.848;8.924;2023-08-01T09:08:01;96158.56;;;21.88;100.00
8697;BME280;4385;48.848;8.924;2023-08-01T09:10:31;96157.75;;;21.88;100.00
8697;BME280;4385;48.848;8.924;2023-08-01T09:12:56;96160.31;;;21.88;100.00
8697;BME280;4385;48.848;8.924;2023-08-01T09:15:22;96162.88;;;21.88;100.00
8697;BME280;4385;48.848;8.924;2023-08-01T09:17:55;96164.59;;;21.87;100.00
8697;BME280;4385;48.848;8.924;2023-08-01T09:20:26;96162.88;;;21.88;100.00
8697;BME280;4385;48.848;8.924;2023-08-01T09:22:52;96157.75;;;21.88;100.00
8697;BME280;4385;48.848;8.924;2023-08-01T09:25:17;96164.50;;;21.89;100.00
8697;BME280;4385;48.848;8.924;2023-08-01T09:27:42;96156.81;;;21.89;100.00
8697;BME280;4385;48.848;8.924;2023-08-01T09:30:13;96163.63;;;21.90;100.00
8697;BME280;4385;48.848;8.924;2023-08-01T09:32:40;96166.19;;;21.90;100.00
8697;BME280;4385;48.848;8.924;2023-08-01T09:35:15;96173.88;;;21.90;100.00
8697;BME280;4385;48.848;8.924;2023-08-01T09:37:41;96182.28;;;21.92;100.00
8697;BME280;4385;48.848;8.924;2023-08-01T09:40:08;96183.22;;;21.91;100.00
8697;BME280;4385;48.848;8.924;2023-08-01T09:42:41;96176.44;;;21.90;100.00
8697;BME280;4385;48.848;8.924;2023-08-01T09:47:36;96173.03;;;21.89;100.00
8697;BME280;4385;48.848;8.924;2023-08-01T09:50:02;96181.56;;;21.90;100.00
8697;BME280;4385;48.848;8.924;2023-08-01T09:52:28;96173.13;;;21.88;100.00
8697;BME280;4385;48.848;8.924;2023-08-01T09:54:54;96173.13;;;21.88;100.00
8697;BME280;4385;48.848;8.924;2023-08-01T09:57:20;96166.34;;;21.87;100.00
8697;BME280;4385;48.848;8.924;2023-08-01T09:59:47;96180.81;;;21.88;100.00
8697;BME280;4385;48.848;8.924;2023-08-01T10:02:15;96189.34;;;21.88;100.00
8697;BME280;4385;48.848;8.924;2023-08-01T10:04:41;96187.69;;;21.87;100.00
8697;BME280;4385;48.848;8.924;2023-08-01T10:07:10;96192.00;;;21.87;100.00
8697;BME280;4385;48.848;8.924;2023-08-01T10:09:37;96192.81;;;21.87;100.00
8697;BME280;4385;48.848;8.924;2023-08-01T10:12:04;96197.94;;;21.87;100.00
8697;BME280;4385;48.848;8.924;2023-08-01T10:14:32;96198.75;;;21.88;100.00
8697;BME280;4385;48.848;8.924;2023-08-01T10:16:57;96203.06;;;21.87;100.00
8697;BME280;4385;48.848;8.924;2023-08-01T10:19:23;96204.72;;;21.88;100.00
8697;BME280;4385;48.848;8.924;2023-08-01T10:21:50;96203.91;;;21.88;100.00
8697;BME280;4385;48.848;8.924;2023-08-01T10:24:16;96215.88;;;21.87;100.00
8697;BME280;4385;48.848;8.924;2023-08-01T10:26:44;96213.41;;;21.86;100.00
8697;BME280;4385;48.848;8.924;2023-08-01T10:29:11;96215.97;;;21.86;100.00
8697;BME280;4385;48.848;8.924;2023-08-01T10:31:36;96215.97;;;21.86;100.00
8697;BME280;4385;48.848;8.924;2023-08-01T10:34:06;96204.91;;;21.85;100.00
8697;BME280;4385;48.848;8.924;2023-08-01T10:36:32;96215.06;;;21.87;100.00
8697;BME280;4385;48.848;8.924;2023-08-01T10:39:00;96221.09;;;21.86;100.00
8697;BME280;4385;48.848;8.924;2023-08-01T10:41:28;96228.78;;;21.86;100.00
8697;BME280;4385;48.848;8.924;2023-08-01T10:44:12;96227.06;;;21.86;100.00
8697;BME280;4385;48.848;8.924;2023-08-01T10:46:59;96221.00;;;21.87;100.00
8697;BME280;4385;48.848;8.924;2023-08-01T10:51:59;96219.28;;;21.88;100.00
8697;BME280;4385;48.848;8.924;2023-08-01T10:54:25;96215.88;;;21.87;100.00
8697;BME280;4385;48.848;8.924;2023-08-01T10:56:53;96227.91;;;21.87;100.00
8697;BME280;4385;48.848;8.924;2023-08-01T10:59:19;96228.69;;;21.87;100.00
8697;BME280;4385;48.848;8.924;2023-08-01T11:01:51;96239.78;;;21.88;100.00
8697;BME280;4385;48.848;8.924;2023-08-01T11:04:18;96234.66;;;21.88;100.00
8697;BME280;4385;48.848;8.924;2023-08-01T11:06:46;96239.78;;;21.88;100.00
8697;BME280;4385;48.848;8.924;2023-08-01T11:09:19;96237.22;;;21.88;100.00
8697;BME280;4385;48.848;8.924;2023-08-01T11:11:47;96243.19;;;21.88;100.00
8697;BME280;4385;48.848;8.924;2023-08-01T11:14:13;96233.75;;;21.89;100.00
8697;BME280;4385;48.848;8.924;2023-08-01T11:16:39;96235.50;;;21.88;100.00
8697;BME280;4385;48.848;8.924;2023-08-01T11:19:05;96241.44;;;21.89;100.00
8697;BME280;4385;48.848;8.924;2023-08-01T11:21:30;96250.81;;;21.90;100.00
8697;BME280;4385;48.848;8.924;2023-08-01T11:23:56;96259.31;;;21.90;100.00
8697;BME280;4385;48.848;8.924;2023-08-01T11:26:21;96255.00;;;21.91;100.00
8697;BME280;4385;48.848;8.924;2023-08-01T11:28:47;96257.56;;;21.91;100.00
8697;BME280;4385;48.848;8.924;2023-08-01T11:31:12;96260.13;;;21.91;100.00
8697;BME280;4385;48.848;8.924;2023-08-01T11:33:38;96259.31;;;21.90;100.00
8697;BME280;4385;48.848;8.924;2023-08-01T11:36:04;96260.13;;;21.91;100.00
8697;BME280;4385;48.848;8.924;2023-08-01T11:38:32;96260.13;;;21.91;100.00
8697;BME280;4385;48.848;8.924;2023-08-01T11:41:00;96250.81;;;21.90;100.00
8697;BME280;4385;48.848;8.924;2023-08-01T11:43:25;96249.88;;;21.91;100.00
8697;BME280;4385;48.848;8.924;2023-08-01T11:45:51;96271.22;;;21.91;100.00
8697;BME280;4385;48.848;8.924;2023-08-01T11:48:20;96266.09;;;21.91;100.00
8697;BME280;4385;48.848;8.924;2023-08-01T11:50:46;96269.56;;;21.90;100.00
8697;BME280;4385;48.848;8.924;2023-08-01T11:53:21;96271.31;;;21.90;100.00
8697;BME280;4385;48.848;8.924;2023-08-01T11:55:47;96279.81;;;21.90;100.00
8697;BME280;4385;48.848;8.924;2023-08-01T11:58:13;96273.88;;;21.90;100.00
8697;BME280;4385;48.848;8.924;2023-08-01T12:00:40;96274.69;;;21.90;100.00
8697;BME280;4385;48.848;8.924;2023-08-01T12:03:09;96271.31;;;21.90;100.00
8697;BME280;4385;48.848;8.924;2023-08-01T12:05:39;96270.41;;;21.91;100.00
8697;BME280;4385;48.848;8.924;2023-08-01T12:08:13;96275.53;;;21.91;100.00
8697;BME280;4385;48.848;8.924;2023-08-01T12:10:40;96274.59;;;21.92;100.00
8697;BME280;4385;48.848;8.924;2023-08-01T12:13:05;96280.66;;;21.91;100.00
8697;BME280;4385;48.848;8.924;2023-08-01T12:15:30;96272.97;;;21.91;100.00
8697;BME280;4385;48.848;8.924;2023-08-01T12:17:56;96279.00;;;21.90;100.00
8697;BME280;4385;48.848;8.924;2023-08-01T12:20:22;96272.13;;;21.90;100.00
8697;BME280;4385;48.848;8.924;2023-08-01T12:22:47;96269.56;;;21.90;100.00
8697;BME280;4385;48.848;8.924;2023-08-01T12:25:12;96267.00;;;21.90;100.00
8697;BME280;4385;48.848;8.924;2023-08-01T12:27:37;96279.00;;;21.90;100.00
8697;BME280;4385;48.848;8.924;2023-08-01T12:30:03;96280.66;;;21.91;100.00
8697;BME280;4385;48.848;8.924;2023-08-01T12:32:28;96284.13;;;21.90;100.00
8697;BME280;4385;48.848;8.924;2023-08-01T12:34:54;96291.84;;;21.90;100.00
8697;BME280;4385;48.848;8.924;2023-08-01T12:37:19;96288.44;;;21.89;100.00
8697;BME280;4385;48.848;8.924;2023-08-01T12:39:44;96283.22;;;21.91;100.00
8697;BME280;4385;48.848;8.924;2023-08-01T12:42:09;96286.69;;;21.90;100.00
8697;BME280;4385;48.848;8.924;2023-08-01T12:44:35;96279.00;;;21.90;100.00
8697;BME280;4385;48.848;8.924;2023-08-01T12:47:00;96268.75;;;21.90;100.00
8697;BME280;4385;48.848;8.924;2023-08-01T12:49:25;96287.59;;;21.89;100.00
8697;BME280;4385;48.848;8.924;2023-08-01T12:51:51;96287.59;;;21.89;100.00
8697;BME280;4385;48.848;8.924;2023-08-01T12:54:16;96298.69;;;21.89;100.00
8697;BME280;4385;48.848;8.924;2023-08-01T12:56:43;96295.28;;;21.89;100.00
8697;BME280;4385;48.848;8.924;2023-08-01T12:59:08;96297.84;;;21.89;100.00
8697;BME280;4385;48.848;8.924;2023-08-01T13:01:33;96293.56;;;21.89;100.00
8697;BME280;4385;48.848;8.924;2023-08-01T13:03:58;96297.84;;;21.89;100.00
8697;BME280;4385;48.848;8.924;2023-08-01T13:06:24;96295.28;;;21.89;100.00
8697;BME280;4385;48.848;8.924;2023-08-01T13:08:49;96294.41;;;21.90;100.00